sensor_id;sensor_type;location;lat;lon;timestamp;P1;durP1;ratioP1;P2;durP2;ratioP2
15261;SDS011;7733;51.554;13.590;2024-01-07T00:00:21;15.83;;;13.73;;
15261;SDS011;7733;51.554;13.590;2024-01-07T00:02:47;11.43;;;10.23;;
15261;SDS011;7733;51.554;13.590;2024-01-07T00:05:13;15.00;;;12.80;;
15261;SDS011;7733;51.554;13.590;2024-01-07T00:07:39;15.70;;;12.50;;
15261;SDS011;7733;51.554;13.590;2024-01-07T00:10:04;17.93;;;14.67;;
15261;SDS011;7733;51.554;13.590;2024-01-07T00:12:30;13.47;;;12.07;;
15261;SDS011;7733;51.554;13.590;2024-01-07T00:14:56;11.70;;;10.60;;
15261;SDS011;7733;51.554;13.590;2024-01-07T00:17:22;13.13;;;11.63;;
15261;SDS011;7733;51.554;13.590;2024-01-07T00:19:48;12.47;;;11.17;;
15261;SDS011;7733;51.554;13.590;2024-01-07T00:22:14;11.70;;;10.50;;
15261;SDS011;7733;51.554;13.590;2024-01-07T00:24:39;12.50;;;11.20;;
15261;SDS011;7733;51.554;13.590;2024-01-07T00:27:05;12.03;;;10.60;;
15261;SDS011;7733;51.554;13.590;2024-01-07T00:29:33;13.90;;;11.10;;
15261;SDS011;7733;51.554;13.590;2024-01-07T00:32:00;13.70;;;11.13;;
15261;SDS011;7733;51.554;13.590;2024-01-07T00:34:27;12.80;;;10.53;;
15261;SDS011;7733;51.554;13.590;2024-01-07T00:36:52;13.33;;;10.80;;
15261;SDS011;7733;51.554;13.590;2024-01-07T00:39:18;12.90;;;11.00;;
15261;SDS011;7733;51.554;13.590;2024-01-07T00:41:44;13.40;;;11.27;;
15261;SDS011;7733;51.554;13.590;2024-01-07T00:44:09;12.30;;;11.00;;
15261;SDS011;7733;51.554;13.590;2024-01-07T00:46:35;14.77;;;11.40;;
15261;SDS011;7733;51.554;13.590;2024-01-07T00:49:01;12.47;;;10.90;;
15261;SDS011;7733;51.554;13.590;2024-01-07T00:51:26;12.23;;;10.93;;
15261;SDS011;7733;51.554;13.590;2024-01-07T00:53:52;13.23;;;10.80;;
15261;SDS011;7733;51.554;13.590;2024-01-07T00:56:18;11.87;;;10.50;;
15261;SDS011;7733;51.554;13.590;2024-01-07T00:58:43;13.57;;;11.77;;
15261;SDS011;7733;51.554;13.590;2024-01-07T01:01:09;14.07;;;10.50;;
15261;SDS011;7733;51.554;13.590;2024-01-07T01:03:35;12.07;;;10.50;;
15261;SDS011;7733;51.554;13.590;2024-01-07T01:06:00;11.37;;;10.17;;
15261;SDS011;7733;51.554;13.590;2024-01-07T01:08:27;11.80;;;9.63;;
15261;SDS011;7733;51.554;13.590;2024-01-07T01:10:53;10.53;;;9.33;;
15261;SDS011;7733;51.554;13.590;2024-01-07T01:13:19;10.50;;;9.37;;
15261;SDS011;7733;51.554;13.590;2024-01-07T01:15:44;10.40;;;9.30;;
15261;SDS011;7733;51.554;13.590;2024-01-07T01:18:10;11.67;;;10.40;;
15261;SDS011;7733;51.554;13.590;2024-01-07T01:20:36;11.80;;;10.27;;
15261;SDS011;7733;51.554;13.590;2024-01-07T01:23:01;11.13;;;9.80;;
15261;SDS011;7733;51.554;13.590;2024-01-07T01:25:27;12.57;;;10.07;;
15261;SDS011;7733;51.554;13.590;2024-01-07T01:27:54;10.37;;;9.37;;
15261;SDS011;7733;51.554;13.590;2024-01-07T01:30:21;10.30;;;9.17;;
15261;SDS011;7733;51.554;13.590;2024-01-07T01:32:47;11.10;;;9.30;;
15261;SDS011;7733;51.554;13.590;2024-01-07T01:35:12;10.03;;;9.03;;
15261;SDS011;7733;51.554;13.590;2024-01-07T01:37:38;10.67;;;8.83;;
15261;SDS011;7733;51.554;13.590;2024-01-07T01:40:04;12.33;;;9.17;;
15261;SDS011;7733;51.554;13.590;2024-01-07T01:42:30;12.90;;;9.37;;
15261;SDS011;7733;51.554;13.590;2024-01-07T01:44:56;13.63;;;10.00;;
15261;SDS011;7733;51.554;13.590;2024-01-07T01:47:24;10.53;;;9.30;;
15261;SDS011;7733;51.554;13.590;2024-01-07T01:49:50;11.17;;;9.40;;
15261;SDS011;7733;51.554;13.590;2024-01-07T01:52:17;10.00;;;8.70;;
15261;SDS011;7733;51.554;13.590;2024-01-07T01:54:42;11.37;;;8.80;;
15261;SDS011;7733;51.554;13.590;2024-01-07T01:57:11;12.67;;;9.30;;
15261;SDS011;7733;51.554;13.590;2024-01-07T01:59:44;12.87;;;9.20;;
15261;SDS011;7733;51.554;13.590;2024-01-07T02:02:10;10.93;;;9.10;;
15261;SDS011;7733;51.554;13.590;2024-01-07T02:04:36;11.87;;;8.57;;
15261;SDS011;7733;51.554;13.590;2024-01-07T02:07:02;9.77;;;7.93;;
15261;SDS011;7733;51.554;13.590;2024-01-07T02:09:28;9.17;;;7.57;;
15261;SDS011;7733;51.554;13.590;2024-01-07T02:12:00;8.47;;;7.40;;
15261;SDS011;7733;51.554;13.590;2024-01-07T02:14:30;8.17;;;7.23;;
15261;SDS011;7733;51.554;13.590;2024-01-07T02:16:56;8.00;;;7.20;;
15261;SDS011;7733;51.554;13.590;2024-01-07T02:19:22;9.40;;;8.10;;
15261;SDS011;7733;51.554;13.590;2024-01-07T02:21:50;7.83;;;7.03;;
15261;SDS011;7733;51.554;13.590;2024-01-07T02:24:16;7.53;;;6.77;;
15261;SDS011;7733;51.554;13.590;2024-01-07T02:26:43;9.20;;;7.43;;
15261;SDS011;7733;51.554;13.590;2024-01-07T02:29:08;8.07;;;7.07;;
15261;SDS011;7733;51.554;13.590;2024-01-07T02:31:34;12.23;;;6.90;;
15261;SDS011;7733;51.554;13.590;2024-01-07T02:34:00;7.93;;;6.60;;
15261;SDS011;7733;51.554;13.590;2024-01-07T02:36:25;7.03;;;6.33;;
15261;SDS011;7733;51.554;13.590;2024-01-07T02:38:51;7.40;;;6.53;;
15261;SDS011;7733;51.554;13.590;2024-01-07T02:41:17;7.57;;;6.77;;
15261;SDS011;7733;51.554;13.590;2024-01-07T02:43:43;7.07;;;6.37;;
15261;SDS011;7733;51.554;13.590;2024-01-07T02:46:09;7.13;;;6.43;;
15261;SDS011;7733;51.554;13.590;2024-01-07T02:48:35;6.83;;;6.13;;
15261;SDS011;7733;51.554;13.590;2024-01-07T02:51:00;6.83;;;6.10;;
15261;SDS011;7733;51.554;13.590;2024-01-07T02:53:28;8.90;;;6.10;;
15261;SDS011;7733;51.554;13.590;2024-01-07T02:55:54;7.47;;;6.57;;
15261;SDS011;7733;51.554;13.590;2024-01-07T02:58:19;7.03;;;5.90;;
15261;SDS011;7733;51.554;13.590;2024-01-07T03:00:45;9.10;;;7.60;;
15261;SDS011;7733;51.554;13.590;2024-01-07T03:03:11;6.17;;;5.57;;
15261;SDS011;7733;51.554;13.590;2024-01-07T03:05:37;6.27;;;5.60;;
15261;SDS011;7733;51.554;13.590;2024-01-07T03:08:02;9.87;;;8.87;;
15261;SDS011;7733;51.554;13.590;2024-01-07T03:10:28;8.53;;;7.23;;
15261;SDS011;7733;51.554;13.590;2024-01-07T03:12:54;6.80;;;6.10;;
15261;SDS011;7733;51.554;13.590;2024-01-07T03:15:20;11.13;;;7.67;;
15261;SDS011;7733;51.554;13.590;2024-01-07T03:17:45;58.33;;;33.23;;
15261;SDS011;7733;51.554;13.590;2024-01-07T03:20:11;128.53;;;69.47;;
15261;SDS011;7733;51.554;13.590;2024-01-07T03:22:37;100.97;;;54.77;;
15261;SDS011;7733;51.554;13.590;2024-01-07T03:25:03;10.83;;;7.63;;
15261;SDS011;7733;51.554;13.590;2024-01-07T03:27:29;24.30;;;15.17;;
15261;SDS011;7733;51.554;13.590;2024-01-07T03:29:55;43.53;;;25.63;;
15261;SDS011;7733;51.554;13.590;2024-01-07T03:32:20;15.60;;;10.40;;
15261;SDS011;7733;51.554;13.590;2024-01-07T03:34:46;11.97;;;8.57;;
15261;SDS011;7733;51.554;13.590;2024-01-07T03:37:12;42.40;;;25.90;;
15261;SDS011;7733;51.554;13.590;2024-01-07T03:39:38;7.67;;;5.70;;
15261;SDS011;7733;51.554;13.590;2024-01-07T03:42:03;8.87;;;6.53;;
15261;SDS011;7733;51.554;13.590;2024-01-07T03:44:36;46.23;;;26.73;;
15261;SDS011;7733;51.554;13.590;2024-01-07T03:47:03;10.77;;;7.10;;
15261;SDS011;7733;51.554;13.590;2024-01-07T03:49:29;8.33;;;6.57;;
15261;SDS011;7733;51.554;13.590;2024-01-07T03:51:55;6.80;;;4.93;;
15261;SDS011;7733;51.554;13.590;2024-01-07T03:54:21;6.67;;;5.80;;
15261;SDS011;7733;51.554;13.590;2024-01-07T03:56:46;26.37;;;13.83;;
15261;SDS011;7733;51.554;13.590;2024-01-07T03:59:12;35.37;;;15.93;;
15261;SDS011;7733;51.554;13.590;2024-01-07T04:01:38;7.67;;;5.90;;
15261;SDS011;7733;51.554;13.590;2024-01-07T04:04:03;21.47;;;10.47;;
15261;SDS011;7733;51.554;13.590;2024-01-07T04:06:29;7.80;;;5.30;;
15261;SDS011;7733;51.554;13.590;2024-01-07T04:08:55;4.83;;;4.43;;
15261;SDS011;7733;51.554;13.590;2024-01-07T04:11:21;5.63;;;5.07;;
15261;SDS011;7733;51.554;13.590;2024-01-07T04:13:46;5.83;;;4.90;;
15261;SDS011;7733;51.554;13.590;2024-01-07T04:16:16;5.83;;;5.27;;
15261;SDS011;7733;51.554;13.590;2024-01-07T04:18:43;6.30;;;5.30;;
15261;SDS011;7733;51.554;13.590;2024-01-07T04:21:10;5.40;;;4.90;;
15261;SDS011;7733;51.554;13.590;2024-01-07T04:23:36;5.50;;;5.00;;
15261;SDS011;7733;51.554;13.590;2024-01-07T04:26:03;5.07;;;4.57;;
15261;SDS011;7733;51.554;13.590;2024-01-07T04:28:29;5.80;;;4.93;;
15261;SDS011;7733;51.554;13.590;2024-01-07T04:30:55;5.70;;;4.47;;
15261;SDS011;7733;51.554;13.590;2024-01-07T04:33:20;12.23;;;8.60;;
15261;SDS011;7733;51.554;13.590;2024-01-07T04:35:46;30.83;;;21.10;;
15261;SDS011;7733;51.554;13.590;2024-01-07T04:38:12;11.30;;;8.83;;
15261;SDS011;7733;51.554;13.590;2024-01-07T04:40:39;5.60;;;4.97;;
15261;SDS011;7733;51.554;13.590;2024-01-07T04:43:04;5.07;;;4.50;;
15261;SDS011;7733;51.554;13.590;2024-01-07T04:45:30;5.10;;;4.60;;
15261;SDS011;7733;51.554;13.590;2024-01-07T04:47:56;5.27;;;4.40;;
15261;SDS011;7733;51.554;13.590;2024-01-07T04:50:21;5.10;;;4.60;;
15261;SDS011;7733;51.554;13.590;2024-01-07T04:52:48;5.57;;;4.80;;
15261;SDS011;7733;51.554;13.590;2024-01-07T04:55:13;4.70;;;4.30;;
15261;SDS011;7733;51.554;13.590;2024-01-07T04:57:39;4.90;;;4.37;;
15261;SDS011;7733;51.554;13.590;2024-01-07T05:00:05;5.13;;;4.67;;
15261;SDS011;7733;51.554;13.590;2024-01-07T05:02:31;4.60;;;4.20;;
15261;SDS011;7733;51.554;13.590;2024-01-07T05:04:57;5.50;;;4.40;;
15261;SDS011;7733;51.554;13.590;2024-01-07T05:07:23;4.50;;;4.10;;
15261;SDS011;7733;51.554;13.590;2024-01-07T05:09:48;4.40;;;4.10;;
15261;SDS011;7733;51.554;13.590;2024-01-07T05:12:14;4.50;;;4.10;;
15261;SDS011;7733;51.554;13.590;2024-01-07T05:14:40;4.40;;;4.10;;
15261;SDS011;7733;51.554;13.590;2024-01-07T05:17:07;4.27;;;3.97;;
15261;SDS011;7733;51.554;13.590;2024-01-07T05:19:35;4.90;;;4.50;;
15261;SDS011;7733;51.554;13.590;2024-01-07T05:22:00;4.20;;;3.80;;
15261;SDS011;7733;51.554;13.590;2024-01-07T05:24:26;4.70;;;4.30;;
15261;SDS011;7733;51.554;13.590;2024-01-07T05:26:52;4.60;;;4.20;;
15261;SDS011;7733;51.554;13.590;2024-01-07T05:29:18;4.40;;;4.00;;
15261;SDS011;7733;51.554;13.590;2024-01-07T05:31:44;4.20;;;3.80;;
15261;SDS011;7733;51.554;13.590;2024-01-07T05:34:09;3.77;;;3.47;;
15261;SDS011;7733;51.554;13.590;2024-01-07T05:36:35;4.73;;;4.07;;
15261;SDS011;7733;51.554;13.590;2024-01-07T05:39:01;11.00;;;9.30;;
15261;SDS011;7733;51.554;13.590;2024-01-07T05:41:27;4.97;;;4.33;;
15261;SDS011;7733;51.554;13.590;2024-01-07T05:43:53;5.43;;;4.90;;
15261;SDS011;7733;51.554;13.590;2024-01-07T05:46:19;5.10;;;4.60;;
15261;SDS011;7733;51.554;13.590;2024-01-07T05:48:45;4.90;;;4.40;;
15261;SDS011;7733;51.554;13.590;2024-01-07T05:51:13;4.33;;;3.93;;
15261;SDS011;7733;51.554;13.590;2024-01-07T05:53:40;5.10;;;4.57;;
15261;SDS011;7733;51.554;13.590;2024-01-07T05:56:07;3.63;;;3.37;;
15261;SDS011;7733;51.554;13.590;2024-01-07T05:58:33;4.40;;;4.00;;
15261;SDS011;7733;51.554;13.590;2024-01-07T06:00:59;3.30;;;3.10;;
15261;SDS011;7733;51.554;13.590;2024-01-07T06:03:25;3.43;;;3.23;;
15261;SDS011;7733;51.554;13.590;2024-01-07T06:05:51;3.27;;;2.97;;
15261;SDS011;7733;51.554;13.590;2024-01-07T06:08:18;2.97;;;2.80;;
15261;SDS011;7733;51.554;13.590;2024-01-07T06:10:44;3.33;;;2.77;;
15261;SDS011;7733;51.554;13.590;2024-01-07T06:13:10;3.10;;;2.90;;
15261;SDS011;7733;51.554;13.590;2024-01-07T06:15:35;2.73;;;2.60;;
15261;SDS011;7733;51.554;13.590;2024-01-07T06:18:01;2.73;;;2.60;;
15261;SDS011;7733;51.554;13.590;2024-01-07T06:20:27;3.13;;;2.90;;
15261;SDS011;7733;51.554;13.590;2024-01-07T06:22:53;2.83;;;2.60;;
15261;SDS011;7733;51.554;13.590;2024-01-07T06:25:19;3.03;;;2.87;;
15261;SDS011;7733;51.554;13.590;2024-01-07T06:27:45;2.93;;;2.77;;
15261;SDS011;7733;51.554;13.590;2024-01-07T06:30:11;2.47;;;2.30;;
15261;SDS011;7733;51.554;13.590;2024-01-07T06:32:38;3.00;;;2.80;;
15261;SDS011;7733;51.554;13.590;2024-01-07T06:35:04;2.80;;;2.63;;
15261;SDS011;7733;51.554;13.590;2024-01-07T06:37:30;2.60;;;2.40;;
15261;SDS011;7733;51.554;13.590;2024-01-07T06:39:56;2.37;;;2.27;;
15261;SDS011;7733;51.554;13.590;2024-01-07T06:42:23;2.50;;;2.27;;
15261;SDS011;7733;51.554;13.590;2024-01-07T06:44:49;2.80;;;2.60;;
15261;SDS011;7733;51.554;13.590;2024-01-07T06:47:15;2.50;;;2.30;;
15261;SDS011;7733;51.554;13.590;2024-01-07T06:49:41;2.97;;;2.70;;
15261;SDS011;7733;51.554;13.590;2024-01-07T06:52:06;2.70;;;2.60;;
15261;SDS011;7733;51.554;13.590;2024-01-07T06:54:32;2.30;;;2.20;;
15261;SDS011;7733;51.554;13.590;2024-01-07T06:56:58;2.40;;;2.30;;
15261;SDS011;7733;51.554;13.590;2024-01-07T06:59:24;2.10;;;2.00;;
15261;SDS011;7733;51.554;13.590;2024-01-07T07:01:50;2.47;;;2.20;;
15261;SDS011;7733;51.554;13.590;2024-01-07T07:04:15;2.30;;;2.20;;
15261;SDS011;7733;51.554;13.590;2024-01-07T07:06:41;2.30;;;2.10;;
15261;SDS011;7733;51.554;13.590;2024-01-07T07:09:07;2.27;;;2.17;;
15261;SDS011;7733;51.554;13.590;2024-01-07T07:11:32;2.80;;;2.60;;
15261;SDS011;7733;51.554;13.590;2024-01-07T07:13:58;2.07;;;1.97;;
15261;SDS011;7733;51.554;13.590;2024-01-07T07:16:24;2.50;;;2.30;;
15261;SDS011;7733;51.554;13.590;2024-01-07T07:18:50;2.67;;;2.50;;
15261;SDS011;7733;51.554;13.590;2024-01-07T07:21:16;2.30;;;2.20;;
15261;SDS011;7733;51.554;13.590;2024-01-07T07:23:42;2.30;;;2.20;;
15261;SDS011;7733;51.554;13.590;2024-01-07T07:26:07;2.77;;;2.57;;
15261;SDS011;7733;51.554;13.590;2024-01-07T07:28:33;2.90;;;2.27;;
15261;SDS011;7733;51.554;13.590;2024-01-07T07:30:59;2.20;;;2.10;;
15261;SDS011;7733;51.554;13.590;2024-01-07T07:33:25;2.43;;;2.30;;
15261;SDS011;7733;51.554;13.590;2024-01-07T07:35:50;2.43;;;2.33;;
15261;SDS011;7733;51.554;13.590;2024-01-07T07:38:16;2.23;;;2.13;;
15261;SDS011;7733;51.554;13.590;2024-01-07T07:40:42;2.63;;;2.50;;
15261;SDS011;7733;51.554;13.590;2024-01-07T07:43:08;2.43;;;2.33;;
15261;SDS011;7733;51.554;13.590;2024-01-07T07:45:34;2.30;;;2.20;;
15261;SDS011;7733;51.554;13.590;2024-01-07T07:48:00;2.13;;;2.03;;
15261;SDS011;7733;51.554;13.590;2024-01-07T07:50:26;2.07;;;1.97;;
15261;SDS011;7733;51.554;13.590;2024-01-07T07:52:51;2.50;;;2.30;;
15261;SDS011;7733;51.554;13.590;2024-01-07T07:55:18;2.00;;;1.90;;
15261;SDS011;7733;51.554;13.590;2024-01-07T07:57:44;2.37;;;2.20;;
15261;SDS011;7733;51.554;13.590;2024-01-07T08:00:11;3.83;;;2.20;;
15261;SDS011;7733;51.554;13.590;2024-01-07T08:02:37;2.47;;;2.23;;
15261;SDS011;7733;51.554;13.590;2024-01-07T08:05:04;2.70;;;2.50;;
15261;SDS011;7733;51.554;13.590;2024-01-07T08:07:32;2.30;;;2.20;;
15261;SDS011;7733;51.554;13.590;2024-01-07T08:09:57;2.50;;;2.27;;
15261;SDS011;7733;51.554;13.590;2024-01-07T08:12:23;2.27;;;2.17;;
15261;SDS011;7733;51.554;13.590;2024-01-07T08:14:49;2.07;;;1.97;;
15261;SDS011;7733;51.554;13.590;2024-01-07T08:17:15;2.50;;;2.40;;
15261;SDS011;7733;51.554;13.590;2024-01-07T08:19:41;2.07;;;1.97;;
15261;SDS011;7733;51.554;13.590;2024-01-07T08:22:07;2.20;;;2.10;;
15261;SDS011;7733;51.554;13.590;2024-01-07T08:24:34;2.27;;;2.17;;
15261;SDS011;7733;51.554;13.590;2024-01-07T08:27:00;2.40;;;2.20;;
15261;SDS011;7733;51.554;13.590;2024-01-07T08:29:27;2.20;;;2.00;;
15261;SDS011;7733;51.554;13.590;2024-01-07T08:31:54;2.33;;;2.23;;
15261;SDS011;7733;51.554;13.590;2024-01-07T08:34:19;2.13;;;2.03;;
15261;SDS011;7733;51.554;13.590;2024-01-07T08:36:45;2.17;;;2.07;;
15261;SDS011;7733;51.554;13.590;2024-01-07T08:39:11;2.10;;;2.00;;
15261;SDS011;7733;51.554;13.590;2024-01-07T08:41:39;2.83;;;2.63;;
15261;SDS011;7733;51.554;13.590;2024-01-07T08:44:05;2.40;;;2.10;;
15261;SDS011;7733;51.554;13.590;2024-01-07T08:46:33;1.87;;;1.77;;
15261;SDS011;7733;51.554;13.590;2024-01-07T08:48:59;2.30;;;2.20;;
15261;SDS011;7733;51.554;13.590;2024-01-07T08:51:26;2.07;;;1.90;;
15261;SDS011;7733;51.554;13.590;2024-01-07T08:53:52;2.30;;;2.10;;
15261;SDS011;7733;51.554;13.590;2024-01-07T08:56:18;2.00;;;1.90;;
15261;SDS011;7733;51.554;13.590;2024-01-07T08:58:43;3.40;;;3.17;;
15261;SDS011;7733;51.554;13.590;2024-01-07T09:01:09;2.30;;;2.13;;
15261;SDS011;7733;51.554;13.590;2024-01-07T09:03:35;2.33;;;2.23;;
15261;SDS011;7733;51.554;13.590;2024-01-07T09:06:00;2.47;;;2.27;;
15261;SDS011;7733;51.554;13.590;2024-01-07T09:08:26;2.40;;;2.30;;
15261;SDS011;7733;51.554;13.590;2024-01-07T09:10:52;2.00;;;1.90;;
15261;SDS011;7733;51.554;13.590;2024-01-07T09:13:17;2.37;;;2.10;;
15261;SDS011;7733;51.554;13.590;2024-01-07T09:15:43;1.60;;;1.60;;
15261;SDS011;7733;51.554;13.590;2024-01-07T09:18:09;2.10;;;2.00;;
15261;SDS011;7733;51.554;13.590;2024-01-07T09:20:38;2.10;;;2.00;;
15261;SDS011;7733;51.554;13.590;2024-01-07T09:23:03;2.00;;;1.90;;
15261;SDS011;7733;51.554;13.590;2024-01-07T09:25:29;2.00;;;1.90;;
15261;SDS011;7733;51.554;13.590;2024-01-07T09:27:55;2.10;;;2.00;;
15261;SDS011;7733;51.554;13.590;2024-01-07T09:30:21;2.20;;;2.10;;
15261;SDS011;7733;51.554;13.590;2024-01-07T09:32:46;2.20;;;2.00;;
15261;SDS011;7733;51.554;13.590;2024-01-07T09:35:12;2.20;;;2.07;;
15261;SDS011;7733;51.554;13.590;2024-01-07T09:37:38;1.93;;;1.80;;
15261;SDS011;7733;51.554;13.590;2024-01-07T09:40:03;2.00;;;1.90;;
15261;SDS011;7733;51.554;13.590;2024-01-07T09:42:31;2.30;;;2.20;;
15261;SDS011;7733;51.554;13.590;2024-01-07T09:44:57;2.27;;;2.03;;
15261;SDS011;7733;51.554;13.590;2024-01-07T09:47:29;2.60;;;2.40;;
15261;SDS011;7733;51.554;13.590;2024-01-07T09:49:55;2.13;;;2.03;;
15261;SDS011;7733;51.554;13.590;2024-01-07T09:52:21;2.47;;;2.37;;
15261;SDS011;7733;51.554;13.590;2024-01-07T09:54:50;2.47;;;2.23;;
15261;SDS011;7733;51.554;13.590;2024-01-07T09:57:20;2.10;;;2.00;;
15261;SDS011;7733;51.554;13.590;2024-01-07T09:59:46;2.80;;;2.70;;
15261;SDS011;7733;51.554;13.590;2024-01-07T10:02:12;2.13;;;2.03;;
15261;SDS011;7733;51.554;13.590;2024-01-07T10:04:39;2.40;;;2.30;;
15261;SDS011;7733;51.554;13.590;2024-01-07T10:07:05;2.37;;;2.20;;
15261;SDS011;7733;51.554;13.590;2024-01-07T10:09:32;2.23;;;2.13;;
15261;SDS011;7733;51.554;13.590;2024-01-07T10:11:59;2.30;;;2.20;;
15261;SDS011;7733;51.554;13.590;2024-01-07T10:14:25;2.07;;;1.70;;
15261;SDS011;7733;51.554;13.590;2024-01-07T10:16:51;2.40;;;2.30;;
15261;SDS011;7733;51.554;13.590;2024-01-07T10:19:21;2.37;;;2.27;;
15261;SDS011;7733;51.554;13.590;2024-01-07T10:21:58;1.93;;;1.77;;
15261;SDS011;7733;51.554;13.590;2024-01-07T10:24:38;1.97;;;1.87;;
15261;SDS011;7733;51.554;13.590;2024-01-07T10:27:06;2.80;;;2.30;;
15261;SDS011;7733;51.554;13.590;2024-01-07T10:29:34;2.53;;;2.43;;
15261;SDS011;7733;51.554;13.590;2024-01-07T10:32:00;2.23;;;2.10;;
15261;SDS011;7733;51.554;13.590;2024-01-07T10:34:29;1.90;;;1.90;;
15261;SDS011;7733;51.554;13.590;2024-01-07T10:36:58;1.90;;;1.80;;
15261;SDS011;7733;51.554;13.590;2024-01-07T10:39:25;2.20;;;2.10;;
15261;SDS011;7733;51.554;13.590;2024-01-07T10:41:51;2.40;;;2.30;;
15261;SDS011;7733;51.554;13.590;2024-01-07T10:44:22;3.10;;;2.90;;
15261;SDS011;7733;51.554;13.590;2024-01-07T10:46:52;6.20;;;5.70;;
15261;SDS011;7733;51.554;13.590;2024-01-07T10:49:23;2.30;;;2.20;;
15261;SDS011;7733;51.554;13.590;2024-01-07T10:54:31;2.50;;;2.40;;
15261;SDS011;7733;51.554;13.590;2024-01-07T10:57:04;2.43;;;2.33;;
15261;SDS011;7733;51.554;13.590;2024-01-07T10:59:40;2.30;;;2.20;;
15261;SDS011;7733;51.554;13.590;2024-01-07T11:02:07;2.07;;;1.97;;
15261;SDS011;7733;51.554;13.590;2024-01-07T11:10:14;2.20;;;2.10;;
15261;SDS011;7733;51.554;13.590;2024-01-07T11:12:56;2.13;;;2.03;;
15261;SDS011;7733;51.554;13.590;2024-01-07T11:18:19;2.23;;;2.03;;
15261;SDS011;7733;51.554;13.590;2024-01-07T11:20:46;1.97;;;1.87;;
15261;SDS011;7733;51.554;13.590;2024-01-07T11:26:07;1.87;;;1.77;;
15261;SDS011;7733;51.554;13.590;2024-01-07T11:31:20;1.90;;;1.80;;
15261;SDS011;7733;51.554;13.590;2024-01-07T11:34:07;1.73;;;1.63;;
15261;SDS011;7733;51.554;13.590;2024-01-07T11:36:36;1.70;;;1.70;;
15261;SDS011;7733;51.554;13.590;2024-01-07T11:39:03;1.47;;;1.47;;
15261;SDS011;7733;51.554;13.590;2024-01-07T11:41:33;1.50;;;1.50;;
15261;SDS011;7733;51.554;13.590;2024-01-07T11:44:01;2.07;;;1.97;;
15261;SDS011;7733;51.554;13.590;2024-01-07T11:46:28;1.80;;;1.70;;
15261;SDS011;7733;51.554;13.590;2024-01-07T11:48:58;1.20;;;1.20;;
15261;SDS011;7733;51.554;13.590;2024-01-07T11:51:25;1.23;;;1.23;;
15261;SDS011;7733;51.554;13.590;2024-01-07T11:53:52;1.43;;;1.43;;
15261;SDS011;7733;51.554;13.590;2024-01-07T11:56:18;1.77;;;1.60;;
15261;SDS011;7733;51.554;13.590;2024-01-07T11:58:44;1.57;;;1.50;;
15261;SDS011;7733;51.554;13.590;2024-01-07T12:01:10;1.37;;;1.37;;
15261;SDS011;7733;51.554;13.590;2024-01-07T12:03:36;1.63;;;1.63;;
15261;SDS011;7733;51.554;13.590;2024-01-07T12:06:02;2.67;;;2.50;;
15261;SDS011;7733;51.554;13.590;2024-01-07T12:08:29;1.70;;;1.63;;
15261;SDS011;7733;51.554;13.590;2024-01-07T12:10:55;1.50;;;1.50;;
15261;SDS011;7733;51.554;13.590;2024-01-07T12:13:22;1.50;;;1.50;;
15261;SDS011;7733;51.554;13.590;2024-01-07T12:15:48;1.70;;;1.70;;
15261;SDS011;7733;51.554;13.590;2024-01-07T12:18:14;2.07;;;1.97;;
15261;SDS011;7733;51.554;13.590;2024-01-07T12:20:40;2.37;;;2.27;;
15261;SDS011;7733;51.554;13.590;2024-01-07T12:23:06;1.70;;;1.60;;
15261;SDS011;7733;51.554;13.590;2024-01-07T12:25:35;2.30;;;2.20;;
15261;SDS011;7733;51.554;13.590;2024-01-07T12:28:02;3.10;;;3.00;;
15261;SDS011;7733;51.554;13.590;2024-01-07T12:30:31;4.03;;;3.63;;
15261;SDS011;7733;51.554;13.590;2024-01-07T12:32:57;2.47;;;2.37;;
15261;SDS011;7733;51.554;13.590;2024-01-07T12:35:26;2.70;;;2.50;;
15261;SDS011;7733;51.554;13.590;2024-01-07T12:37:53;1.83;;;1.67;;
15261;SDS011;7733;51.554;13.590;2024-01-07T12:40:19;2.20;;;2.10;;
15261;SDS011;7733;51.554;13.590;2024-01-07T12:42:45;2.63;;;2.47;;
15261;SDS011;7733;51.554;13.590;2024-01-07T12:45:15;2.10;;;2.00;;
15261;SDS011;7733;51.554;13.590;2024-01-07T12:47:41;2.10;;;2.00;;
15261;SDS011;7733;51.554;13.590;2024-01-07T12:50:08;1.90;;;1.80;;
15261;SDS011;7733;51.554;13.590;2024-01-07T12:52:38;2.30;;;2.20;;
15261;SDS011;7733;51.554;13.590;2024-01-07T12:55:04;6.17;;;5.63;;
15261;SDS011;7733;51.554;13.590;2024-01-07T12:57:31;11.40;;;10.47;;
15261;SDS011;7733;51.554;13.590;2024-01-07T12:59:58;3.67;;;3.47;;
15261;SDS011;7733;51.554;13.590;2024-01-07T13:02:24;1.70;;;1.60;;
15261;SDS011;7733;51.554;13.590;2024-01-07T13:04:51;2.83;;;2.73;;
15261;SDS011;7733;51.554;13.590;2024-01-07T13:07:17;2.90;;;2.70;;
15261;SDS011;7733;51.554;13.590;2024-01-07T13:09:42;7.70;;;7.00;;
15261;SDS011;7733;51.554;13.590;2024-01-07T13:12:09;17.50;;;14.70;;
15261;SDS011;7733;51.554;13.590;2024-01-07T13:14:36;7.27;;;6.60;;
15261;SDS011;7733;51.554;13.590;2024-01-07T13:17:02;8.97;;;7.70;;
15261;SDS011;7733;51.554;13.590;2024-01-07T13:19:28;3.70;;;3.50;;
15261;SDS011;7733;51.554;13.590;2024-01-07T13:21:55;4.20;;;3.90;;
15261;SDS011;7733;51.554;13.590;2024-01-07T13:24:23;7.30;;;6.90;;
15261;SDS011;7733;51.554;13.590;2024-01-07T13:26:49;2.60;;;2.50;;
15261;SDS011;7733;51.554;13.590;2024-01-07T13:29:15;1.93;;;1.93;;
15261;SDS011;7733;51.554;13.590;2024-01-07T13:31:40;1.80;;;1.70;;
15261;SDS011;7733;51.554;13.590;2024-01-07T13:34:06;2.10;;;2.00;;
15261;SDS011;7733;51.554;13.590;2024-01-07T13:36:33;4.37;;;4.07;;
15261;SDS011;7733;51.554;13.590;2024-01-07T13:38:59;2.53;;;2.43;;
15261;SDS011;7733;51.554;13.590;2024-01-07T13:41:24;2.50;;;2.40;;
15261;SDS011;7733;51.554;13.590;2024-01-07T13:43:53;2.10;;;2.00;;
15261;SDS011;7733;51.554;13.590;2024-01-07T13:46:20;2.40;;;2.20;;
15261;SDS011;7733;51.554;13.590;2024-01-07T13:48:48;2.10;;;2.00;;
15261;SDS011;7733;51.554;13.590;2024-01-07T13:51:14;1.90;;;1.87;;
15261;SDS011;7733;51.554;13.590;2024-01-07T13:53:40;2.13;;;2.03;;
15261;SDS011;7733;51.554;13.590;2024-01-07T13:56:06;1.80;;;1.77;;
15261;SDS011;7733;51.554;13.590;2024-01-07T13:58:32;1.87;;;1.77;;
15261;SDS011;7733;51.554;13.590;2024-01-07T14:00:58;2.60;;;2.40;;
15261;SDS011;7733;51.554;13.590;2024-01-07T14:03:23;3.00;;;2.80;;
15261;SDS011;7733;51.554;13.590;2024-01-07T14:05:49;3.83;;;3.53;;
15261;SDS011;7733;51.554;13.590;2024-01-07T14:08:16;3.33;;;3.13;;
15261;SDS011;7733;51.554;13.590;2024-01-07T14:10:42;6.80;;;6.07;;
15261;SDS011;7733;51.554;13.590;2024-01-07T14:13:07;5.30;;;4.80;;
15261;SDS011;7733;51.554;13.590;2024-01-07T14:15:34;2.77;;;2.57;;
15261;SDS011;7733;51.554;13.590;2024-01-07T14:18:00;3.17;;;3.00;;
15261;SDS011;7733;51.554;13.590;2024-01-07T14:20:26;3.20;;;3.00;;
15261;SDS011;7733;51.554;13.590;2024-01-07T14:22:53;3.90;;;3.70;;
15261;SDS011;7733;51.554;13.590;2024-01-07T14:25:19;12.20;;;9.77;;
15261;SDS011;7733;51.554;13.590;2024-01-07T14:27:45;5.03;;;4.67;;
15261;SDS011;7733;51.554;13.590;2024-01-07T14:30:12;2.93;;;2.83;;
15261;SDS011;7733;51.554;13.590;2024-01-07T14:32:38;2.23;;;2.13;;
15261;SDS011;7733;51.554;13.590;2024-01-07T14:35:06;2.40;;;2.20;;
15261;SDS011;7733;51.554;13.590;2024-01-07T14:37:32;2.87;;;2.77;;
15261;SDS011;7733;51.554;13.590;2024-01-07T14:39:58;4.10;;;3.80;;
15261;SDS011;7733;51.554;13.590;2024-01-07T14:42:24;7.07;;;6.53;;
15261;SDS011;7733;51.554;13.590;2024-01-07T14:44:50;7.77;;;7.23;;
15261;SDS011;7733;51.554;13.590;2024-01-07T14:47:15;4.43;;;4.00;;
15261;SDS011;7733;51.554;13.590;2024-01-07T14:49:42;3.63;;;3.43;;
15261;SDS011;7733;51.554;13.590;2024-01-07T14:52:08;3.27;;;2.93;;
15261;SDS011;7733;51.554;13.590;2024-01-07T14:54:34;3.00;;;2.80;;